Time;durP1;ratioP1;P1;durP2;ratioP2;P2;SDS_P1;SDS_P2;PMS_P1;PMS_P2;Temp;Humidity;BMP_temperature;BMP_pressure;BME280_temperature;BME280_humidity;BME280_pressure;Samples;Min_cycle;Max_cycle;Signal;HPM_P1;HPM_P2
2020/09/09 00:00:06;;;;;;;13.9;9.1;;;;;;;10.62;87.18555;96157.42;;;;
2020/09/09 00:01:07;;;;;;;12.65;10.3;;;;;;;10.6;87.61914;96143.82;;;;
2020/09/09 00:02:08;;;;;;;12.65;10.3;;;;;;;10.6;87.61914;96143.82;;;;
2020/09/09 00:03:09;;;;;;;12.65;10.3;;;;;;;10.6;87.61914;96143.82;;;;
2020/09/09 00:04:09;;;;;;;12.65;10.3;;;;;;;10.6;87.61914;96143.82;;;;
2020/09/09 00:05:10;;;;;;;12.65;10.3;;;;;;;10.6;87.61914;96143.82;;;;
2020/09/09 00:06:10;;;;;;;12.65;10.3;;;;;;;10.6;87.61914;96143.82;;;;
2020/09/09 00:07:11;;;;;;;12.65;10.3;;;;;;;10.6;87.61914;96143.82;;;;
2020/09/09 00:08:11;;;;;;;12.65;10.3;;;;;;;10.6;87.61914;96143.82;;;;
2020/09/09 00:09:12;;;;;;;12.65;10.3;;;;;;;10.6;87.61914;96143.82;;;;
2020/09/09 00:10:12;;;;;;;12.65;10.3;;;;;;;10.6;87.61914;96143.82;;;;
2020/09/09 00:11:13;;;;;;;12.65;10.3;;;;;;;10.6;87.61914;96143.82;;;;
2020/09/09 00:12:13;;;;;;;15.2;10.9;;;;;;;10.51;88.01563;96149.58;;;;
2020/09/09 00:13:14;;;;;;;15.2;10.9;;;;;;;10.51;88.01563;96149.58;;;;
2020/09/09 00:14:14;;;;;;;15.2;10.9;;;;;;;10.51;88.01563;96149.58;;;;
2020/09/09 00:15:15;;;;;;;15.2;10.9;;;;;;;10.51;88.01563;96149.58;;;;
2020/09/09 00:16:15;;;;;;;15.2;10.9;;;;;;;10.51;88.01563;96149.58;;;;
2020/09/09 00:17:17;;;;;;;15.2;10.9;;;;;;;10.51;88.01563;96149.58;;;;
2020/09/09 00:18:17;;;;;;;15.2;10.9;;;;;;;10.51;88.01563;96149.58;;;;
2020/09/09 00:19:18;;;;;;;15.2;10.9;;;;;;;10.51;88.01563;96149.58;;;;
2020/09/09 00:20:18;;;;;;;15.2;10.9;;;;;;;10.51;88.01563;96149.58;;;;
2020/09/09 00:21:19;;;;;;;15.2;10.9;;;;;;;10.51;88.01563;96149.58;;;;
2020/09/09 00:22:19;;;;;;;15.7;11.1;;;;;;;10.47;88.35938;96131.75;;;;
2020/09/09 00:23:20;;;;;;;15.7;11.1;;;;;;;10.47;88.35938;96131.75;;;;
2020/09/09 00:24:20;;;;;;;15.7;11.1;;;;;;;10.47;88.35938;96131.75;;;;
2020/09/09 00:25:21;;;;;;;15.7;11.1;;;;;;;10.47;88.35938;96131.75;;;;
2020/09/09 00:26:22;;;;;;;15.7;11.1;;;;;;;10.47;88.35938;96131.75;;;;
2020/09/09 00:27:22;;;;;;;15.7;11.1;;;;;;;10.47;88.35938;96131.75;;;;
2020/09/09 00:28:22;;;;;;;15.7;11.1;;;;;;;10.47;88.35938;96131.75;;;;
2020/09/09 00:29:23;;;;;;;15.7;11.1;;;;;;;10.47;88.35938;96131.75;;;;
2020/09/09 00:30:23;;;;;;;15.7;11.1;;;;;;;10.47;88.35938;96131.75;;;;
2020/09/09 00:31:24;;;;;;;15.7;11.1;;;;;;;10.47;88.35938;96131.75;;;;
2020/09/09 00:32:25;;;;;;;15.7;11.1;;;;;;;10.47;88.35938;96131.75;;;;
2020/09/09 00:33:25;;;;;;;14.5;10.95;;;;;;;10.35;88.74121;96134.69;;;;
2020/09/09 00:34:26;;;;;;;14.5;10.95;;;;;;;10.35;88.74121;96134.69;;;;
2020/09/09 00:35:26;;;;;;;14.5;10.95;;;;;;;10.35;88.74121;96134.69;;;;
2020/09/09 00:36:27;;;;;;;14.5;10.95;;;;;;;10.35;88.74121;96134.69;;;;
2020/09/09 00:37:27;;;;;;;14.5;10.95;;;;;;;10.35;88.74121;96134.69;;;;
2020/09/09 00:38:28;;;;;;;14.5;10.95;;;;;;;10.35;88.74121;96134.69;;;;
2020/09/09 00:39:28;;;;;;;14.5;10.95;;;;;;;10.35;88.74121;96134.69;;;;
2020/09/09 00:40:29;;;;;;;14.5;10.95;;;;;;;10.35;88.74121;96134.69;;;;
2020/09/09 00:41:29;;;;;;;14.5;10.95;;;;;;;10.35;88.74121;96134.69;;;;
2020/09/09 00:42:30;;;;;;;14.5;10.95;;;;;;;10.35;88.74121;96134.69;;;;
2020/09/09 00:43:39;;;;;;;12.95;10.55;;;;;;;10.31;89.12793;96119.96;;;;
2020/09/09 00:44:40;;;;;;;12.95;10.55;;;;;;;10.31;89.12793;96119.96;;;;
2020/09/09 00:45:40;;;;;;;12.95;10.55;;;;;;;10.31;89.12793;96119.96;;;;
2020/09/09 00:46:41;;;;;;;12.95;10.55;;;;;;;10.31;89.12793;96119.96;;;;
2020/09/09 00:47:41;;;;;;;12.95;10.55;;;;;;;10.31;89.12793;96119.96;;;;
2020/09/09 00:48:42;;;;;;;12.95;10.55;;;;;;;10.31;89.12793;96119.96;;;;
2020/09/09 00:49:42;;;;;;;12.95;10.55;;;;;;;10.31;89.12793;96119.96;;;;
2020/09/09 00:50:43;;;;;;;12.95;10.55;;;;;;;10.31;89.12793;96119.96;;;;
2020/09/09 00:51:59;;;;;;;12.95;10.55;;;;;;;10.31;89.12793;96119.96;;;;
2020/09/09 00:53:04;;;;;;;12.95;10.55;;;;;;;10.31;89.12793;96119.96;;;;
2020/09/09 00:54:04;;;;;;;12.45;10.9;;;;;;;10.2;89.37109;96105.36;;;;
2020/09/09 00:55:05;;;;;;;12.45;10.9;;;;;;;10.2;89.37109;96105.36;;;;
2020/09/09 00:56:05;;;;;;;12.45;10.9;;;;;;;10.2;89.37109;96105.36;;;;
2020/09/09 00:57:06;;;;;;;12.45;10.9;;;;;;;10.2;89.37109;96105.36;;;;
2020/09/09 00:58:06;;;;;;;12.45;10.9;;;;;;;10.2;89.37109;96105.36;;;;
2020/09/09 00:59:07;;;;;;;12.45;10.9;;;;;;;10.2;89.37109;96105.36;;;;
2020/09/09 01:00:07;;;;;;;12.45;10.9;;;;;;;10.2;89.37109;96105.36;;;;
2020/09/09 01:01:08;;;;;;;12.45;10.9;;;;;;;10.2;89.37109;96105.36;;;;
2020/09/09 01:02:08;;;;;;;12.45;10.9;;;;;;;10.2;89.37109;96105.36;;;;
2020/09/09 01:03:09;;;;;;;12.45;10.9;;;;;;;10.2;89.37109;96105.36;;;;
2020/09/09 01:04:09;;;;;;;12.45;10.9;;;;;;;10.2;89.37109;96105.36;;;;
2020/09/09 01:05:10;;;;;;;16;10.65;;;;;;;10.16;89.69141;96090.24;;;;
2020/09/09 01:06:10;;;;;;;16;10.65;;;;;;;10.16;89.69141;96090.24;;;;
2020/09/09 01:07:11;;;;;;;16;10.65;;;;;;;10.16;89.69141;96090.24;;;;
2020/09/09 01:08:12;;;;;;;16;10.65;;;;;;;10.16;89.69141;96090.24;;;;
2020/09/09 01:09:12;;;;;;;16;10.65;;;;;;;10.16;89.69141;96090.24;;;;
2020/09/09 01:10:13;;;;;;;16;10.65;;;;;;;10.16;89.69141;96090.24;;;;
2020/09/09 01:11:13;;;;;;;16;10.65;;;;;;;10.16;89.69141;96090.24;;;;
2020/09/09 01:12:14;;;;;;;16;10.65;;;;;;;10.16;89.69141;96090.24;;;;
2020/09/09 01:13:14;;;;;;;16;10.65;;;;;;;10.16;89.69141;96090.24;;;;
2020/09/09 01:14:15;;;;;;;16;10.65;;;;;;;10.16;89.69141;96090.24;;;;
2020/09/09 01:15:15;;;;;;;16;10.65;;;;;;;10.16;89.69141;96090.24;;;;
2020/09/09 01:16:16;;;;;;;13.1;11.05;;;;;;;10.05;89.96777;96084;;;;
2020/09/09 01:17:17;;;;;;;13.1;11.05;;;;;;;10.05;89.96777;96084;;;;
2020/09/09 01:18:17;;;;;;;13.1;11.05;;;;;;;10.05;89.96777;96084;;;;
2020/09/09 01:19:18;;;;;;;13.1;11.05;;;;;;;10.05;89.96777;96084;;;;
2020/09/09 01:20:19;;;;;;;13.1;11.05;;;;;;;10.05;89.96777;96084;;;;
2020/09/09 01:21:19;;;;;;;13.1;11.05;;;;;;;10.05;89.96777;96084;;;;
2020/09/09 01:22:20;;;;;;;13.1;11.05;;;;;;;10.05;89.96777;96084;;;;
2020/09/09 01:23:20;;;;;;;13.1;11.05;;;;;;;10.05;89.96777;96084;;;;
2020/09/09 01:24:21;;;;;;;13.1;11.05;;;;;;;10.05;89.96777;96084;;;;
2020/09/09 01:25:21;;;;;;;13.1;11.05;;;;;;;10.05;89.96777;96084;;;;
2020/09/09 01:26:21;;;;;;;13.25;10.8;;;;;;;10.05;90.31836;96070.63;;;;
2020/09/09 01:27:22;;;;;;;13.25;10.8;;;;;;;10.05;90.31836;96070.63;;;;
2020/09/09 01:28:22;;;;;;;13.25;10.8;;;;;;;10.05;90.31836;96070.63;;;;
2020/09/09 01:29:23;;;;;;;13.25;10.8;;;;;;;10.05;90.31836;96070.63;;;;
2020/09/09 01:30:23;;;;;;;13.25;10.8;;;;;;;10.05;90.31836;96070.63;;;;
2020/09/09 01:31:24;;;;;;;13.25;10.8;;;;;;;10.05;90.31836;96070.63;;;;
2020/09/09 01:32:24;;;;;;;13.25;10.8;;;;;;;10.05;90.31836;96070.63;;;;
2020/09/09 01:33:25;;;;;;;13.25;10.8;;;;;;;10.05;90.31836;96070.63;;;;
2020/09/09 01:34:26;;;;;;;13.25;10.8;;;;;;;10.05;90.31836;96070.63;;;;
2020/09/09 01:35:26;;;;;;;13.25;10.8;;;;;;;10.05;90.31836;96070.63;;;;
2020/09/09 01:36:27;;;;;;;13.25;10.8;;;;;;;10.05;90.31836;96070.63;;;;
2020/09/09 01:37:27;;;;;;;14;11.6;;;;;;;9.97;90.58789;96062.77;;;;
2020/09/09 01:38:28;;;;;;;14;11.6;;;;;;;9.97;90.58789;96062.77;;;;
2020/09/09 01:39:28;;;;;;;14;11.6;;;;;;;9.97;90.58789;96062.77;;;;
2020/09/09 01:40:29;;;;;;;14;11.6;;;;;;;9.97;90.58789;96062.77;;;;
2020/09/09 01:41:29;;;;;;;14;11.6;;;;;;;9.97;90.58789;96062.77;;;;
2020/09/09 01:42:30;;;;;;;14;11.6;;;;;;;9.97;90.58789;96062.77;;;;
2020/09/09 01:43:30;;;;;;;14;11.6;;;;;;;9.97;90.58789;96062.77;;;;
2020/09/09 01:44:31;;;;;;;14;11.6;;;;;;;9.97;90.58789;96062.77;;;;
2020/09/09 01:45:31;;;;;;;14;11.6;;;;;;;9.97;90.58789;96062.77;;;;
2020/09/09 01:46:32;;;;;;;14;11.6;;;;;;;9.97;90.58789;96062.77;;;;
2020/09/09 01:47:32;;;;;;;12.85;10.85;;;;;;;9.97;90.90723;96051.46;;;;
2020/09/09 01:48:33;;;;;;;12.85;10.85;;;;;;;9.97;90.90723;96051.46;;;;
2020/09/09 01:49:33;;;;;;;12.85;10.85;;;;;;;9.97;90.90723;96051.46;;;;
2020/09/09 01:50:34;;;;;;;12.85;10.85;;;;;;;9.97;90.90723;96051.46;;;;
2020/09/09 01:51:34;;;;;;;12.85;10.85;;;;;;;9.97;90.90723;96051.46;;;;
2020/09/09 01:52:35;;;;;;;12.85;10.85;;;;;;;9.97;90.90723;96051.46;;;;
2020/09/09 01:53:35;;;;;;;12.85;10.85;;;;;;;9.97;90.90723;96051.46;;;;
2020/09/09 01:54:35;;;;;;;12.85;10.85;;;;;;;9.97;90.90723;96051.46;;;;
2020/09/09 01:55:36;;;;;;;12.85;10.85;;;;;;;9.97;90.90723;96051.46;;;;
2020/09/09 01:56:36;;;;;;;12.85;10.85;;;;;;;9.97;90.90723;96051.46;;;;
2020/09/09 01:57:37;;;;;;;12.85;10.85;;;;;;;9.97;90.90723;96051.46;;;;
2020/09/09 01:58:37;;;;;;;13.55;11.05;;;;;;;9.9;91.20215;96045.68;;;;
2020/09/09 01:59:38;;;;;;;13.55;11.05;;;;;;;9.9;91.20215;96045.68;;;;
2020/09/09 02:00:38;;;;;;;13.55;11.05;;;;;;;9.9;91.20215;96045.68;;;;
2020/09/09 02:01:39;;;;;;;13.55;11.05;;;;;;;9.9;91.20215;96045.68;;;;
2020/09/09 02:02:39;;;;;;;13.55;11.05;;;;;;;9.9;91.20215;96045.68;;;;
2020/09/09 02:03:40;;;;;;;13.55;11.05;;;;;;;9.9;91.20215;96045.68;;;;
2020/09/09 02:04:40;;;;;;;13.55;11.05;;;;;;;9.9;91.20215;96045.68;;;;
2020/09/09 02:05:41;;;;;;;13.55;11.05;;;;;;;9.9;91.20215;96045.68;;;;
2020/09/09 02:06:41;;;;;;;13.55;11.05;;;;;;;9.9;91.20215;96045.68;;;;
2020/09/09 02:07:42;;;;;;;13.55;11.05;;;;;;;9.9;91.20215;96045.68;;;;
2020/09/09 02:08:42;;;;;;;13.55;11.05;;;;;;;9.9;91.20215;96045.68;;;;
2020/09/09 02:09:43;;;;;;;13.3;10.2;;;;;;;9.9;91.54199;96036.24;;;;
2020/09/09 02:10:43;;;;;;;13.3;10.2;;;;;;;9.9;91.54199;96036.24;;;;
2020/09/09 02:11:44;;;;;;;13.3;10.2;;;;;;;9.9;91.54199;96036.24;;;;
2020/09/09 02:12:44;;;;;;;13.3;10.2;;;;;;;9.9;91.54199;96036.24;;;;
2020/09/09 02:13:45;;;;;;;13.3;10.2;;;;;;;9.9;91.54199;96036.24;;;;
2020/09/09 02:14:45;;;;;;;13.3;10.2;;;;;;;9.9;91.54199;96036.24;;;;
2020/09/09 02:15:46;;;;;;;13.3;10.2;;;;;;;9.9;91.54199;96036.24;;;;
2020/09/09 02:16:46;;;;;;;13.3;10.2;;;;;;;9.9;91.54199;96036.24;;;;
2020/09/09 02:17:47;;;;;;;13.3;10.2;;;;;;;9.9;91.54199;96036.24;;;;
2020/09/09 02:18:47;;;;;;;13.3;10.2;;;;;;;9.9;91.54199;96036.24;;;;
2020/09/09 02:19:48;;;;;;;14.1;11.4;;;;;;;9.83;91.83398;96032.33;;;;
2020/09/09 02:20:48;;;;;;;14.1;11.4;;;;;;;9.83;91.83398;96032.33;;;;
2020/09/09 02:21:49;;;;;;;14.1;11.4;;;;;;;9.83;91.83398;96032.33;;;;
2020/09/09 02:22:50;;;;;;;14.1;11.4;;;;;;;9.83;91.83398;96032.33;;;;
2020/09/09 02:23:50;;;;;;;14.1;11.4;;;;;;;9.83;91.83398;96032.33;;;;
2020/09/09 02:24:51;;;;;;;14.1;11.4;;;;;;;9.83;91.83398;96032.33;;;;
2020/09/09 02:25:51;;;;;;;14.1;11.4;;;;;;;9.83;91.83398;96032.33;;;;
2020/09/09 02:26:52;;;;;;;14.1;11.4;;;;;;;9.83;91.83398;96032.33;;;;
2020/09/09 02:27:52;;;;;;;14.1;11.4;;;;;;;9.83;91.83398;96032.33;;;;
2020/09/09 02:28:53;;;;;;;14.1;11.4;;;;;;;9.83;91.83398;96032.33;;;;
2020/09/09 02:29:53;;;;;;;14.1;11.4;;;;;;;9.83;91.83398;96032.33;;;;
2020/09/09 02:30:54;;;;;;;11.3;10.05;;;;;;;9.83;92.13184;96033.67;;;;
2020/09/09 02:31:54;;;;;;;11.3;10.05;;;;;;;9.83;92.13184;96033.67;;;;
2020/09/09 02:32:55;;;;;;;11.3;10.05;;;;;;;9.83;92.13184;96033.67;;;;
2020/09/09 02:33:55;;;;;;;11.3;10.05;;;;;;;9.83;92.13184;96033.67;;;;
2020/09/09 02:34:56;;;;;;;11.3;10.05;;;;;;;9.83;92.13184;96033.67;;;;
2020/09/09 02:35:57;;;;;;;11.3;10.05;;;;;;;9.83;92.13184;96033.67;;;;
2020/09/09 02:36:57;;;;;;;11.3;10.05;;;;;;;9.83;92.13184;96033.67;;;;
2020/09/09 02:37:58;;;;;;;11.3;10.05;;;;;;;9.83;92.13184;96033.67;;;;
2020/09/09 02:38:59;;;;;;;11.3;10.05;;;;;;;9.83;92.13184;96033.67;;;;
2020/09/09 02:39:59;;;;;;;11.3;10.05;;;;;;;9.83;92.13184;96033.67;;;;
2020/09/09 02:41:00;;;;;;;12.55;10.9;;;;;;;9.75;92.40234;96033.5;;;;
2020/09/09 02:42:00;;;;;;;12.55;10.9;;;;;;;9.75;92.40234;96033.5;;;;
2020/09/09 02:43:01;;;;;;;12.55;10.9;;;;;;;9.75;92.40234;96033.5;;;;
2020/09/09 02:44:01;;;;;;;12.55;10.9;;;;;;;9.75;92.40234;96033.5;;;;
2020/09/09 02:45:02;;;;;;;12.55;10.9;;;;;;;9.75;92.40234;96033.5;;;;
2020/09/09 02:46:03;;;;;;;12.55;10.9;;;;;;;9.75;92.40234;96033.5;;;;
2020/09/09 02:47:04;;;;;;;12.55;10.9;;;;;;;9.75;92.40234;96033.5;;;;
2020/09/09 02:48:04;;;;;;;12.55;10.9;;;;;;;9.75;92.40234;96033.5;;;;
2020/09/09 02:49:05;;;;;;;12.55;10.9;;;;;;;9.75;92.40234;96033.5;;;;
2020/09/09 02:50:05;;;;;;;12.55;10.9;;;;;;;9.75;92.40234;96033.5;;;;
2020/09/09 02:51:06;;;;;;;12.55;10.9;;;;;;;9.75;92.40234;96033.5;;;;
2020/09/09 02:52:06;;;;;;;11.45;10.25;;;;;;;9.73;92.71777;96027.91;;;;
2020/09/09 02:53:07;;;;;;;11.45;10.25;;;;;;;9.73;92.71777;96027.91;;;;
2020/09/09 02:54:07;;;;;;;11.45;10.25;;;;;;;9.73;92.71777;96027.91;;;;
2020/09/09 02:55:08;;;;;;;11.45;10.25;;;;;;;9.73;92.71777;96027.91;;;;
2020/09/09 02:56:08;;;;;;;11.45;10.25;;;;;;;9.73;92.71777;96027.91;;;;
2020/09/09 02:57:09;;;;;;;11.45;10.25;;;;;;;9.73;92.71777;96027.91;;;;
2020/09/09 02:58:09;;;;;;;11.45;10.25;;;;;;;9.73;92.71777;96027.91;;;;
2020/09/09 02:59:10;;;;;;;11.45;10.25;;;;;;;9.73;92.71777;96027.91;;;;
2020/09/09 03:00:10;;;;;;;11.45;10.25;;;;;;;9.73;92.71777;96027.91;;;;
2020/09/09 03:01:11;;;;;;;11.45;10.25;;;;;;;9.73;92.71777;96027.91;;;;
2020/09/09 03:02:11;;;;;;;11.5;10.1;;;;;;;9.65;93.01758;96020.54;;;;
2020/09/09 03:03:12;;;;;;;11.5;10.1;;;;;;;9.65;93.01758;96020.54;;;;
2020/09/09 03:04:12;;;;;;;11.5;10.1;;;;;;;9.65;93.01758;96020.54;;;;
2020/09/09 03:05:13;;;;;;;11.5;10.1;;;;;;;9.65;93.01758;96020.54;;;;
2020/09/09 03:06:13;;;;;;;11.5;10.1;;;;;;;9.65;93.01758;96020.54;;;;
2020/09/09 03:07:14;;;;;;;11.5;10.1;;;;;;;9.65;93.01758;96020.54;;;;
2020/09/09 03:08:14;;;;;;;11.5;10.1;;;;;;;9.65;93.01758;96020.54;;;;
2020/09/09 03:09:15;;;;;;;11.5;10.1;;;;;;;9.65;93.01758;96020.54;;;;
2020/09/09 03:10:15;;;;;;;11.5;10.1;;;;;;;9.65;93.01758;96020.54;;;;
2020/09/09 03:11:16;;;;;;;11.5;10.1;;;;;;;9.65;93.01758;96020.54;;;;
2020/09/09 03:12:16;;;;;;;11.5;10.1;;;;;;;9.65;93.01758;96020.54;;;;
2020/09/09 03:13:17;;;;;;;11;9.200002;;;;;;;9.63;93.30957;96014.54;;;;
2020/09/09 03:14:17;;;;;;;11;9.200002;;;;;;;9.63;93.30957;96014.54;;;;
2020/09/09 03:15:18;;;;;;;11;9.200002;;;;;;;9.63;93.30957;96014.54;;;;
2020/09/09 03:16:18;;;;;;;11;9.200002;;;;;;;9.63;93.30957;96014.54;;;;
2020/09/09 03:17:19;;;;;;;11;9.200002;;;;;;;9.63;93.30957;96014.54;;;;
2020/09/09 03:18:19;;;;;;;11;9.200002;;;;;;;9.63;93.30957;96014.54;;;;
2020/09/09 03:19:20;;;;;;;11;9.200002;;;;;;;9.63;93.30957;96014.54;;;;
2020/09/09 03:20:20;;;;;;;11;9.200002;;;;;;;9.63;93.30957;96014.54;;;;
2020/09/09 03:21:21;;;;;;;11;9.200002;;;;;;;9.63;93.30957;96014.54;;;;
2020/09/09 03:22:21;;;;;;;11;9.200002;;;;;;;9.63;93.30957;96014.54;;;;
2020/09/09 03:23:22;;;;;;;11;9.200002;;;;;;;9.63;93.30957;96014.54;;;;
2020/09/09 03:24:23;;;;;;;10.9;9.800001;;;;;;;9.53;93.56738;96005.57;;;;
2020/09/09 03:25:23;;;;;;;10.9;9.800001;;;;;;;9.53;93.56738;96005.57;;;;
2020/09/09 03:26:24;;;;;;;10.9;9.800001;;;;;;;9.53;93.56738;96005.57;;;;
2020/09/09 03:27:24;;;;;;;10.9;9.800001;;;;;;;9.53;93.56738;96005.57;;;;
2020/09/09 03:28:25;;;;;;;10.9;9.800001;;;;;;;9.53;93.56738;96005.57;;;;
2020/09/09 03:29:25;;;;;;;10.9;9.800001;;;;;;;9.53;93.56738;96005.57;;;;
2020/09/09 03:30:26;;;;;;;10.9;9.800001;;;;;;;9.53;93.56738;96005.57;;;;
2020/09/09 03:31:26;;;;;;;10.9;9.800001;;;;;;;9.53;93.56738;96005.57;;;;
2020/09/09 03:32:28;;;;;;;10.9;9.800001;;;;;;;9.53;93.56738;96005.57;;;;
2020/09/09 03:33:28;;;;;;;10.9;9.800001;;;;;;;9.53;93.56738;96005.57;;;;
2020/09/09 03:34:29;;;;;;;11.7;9.950002;;;;;;;9.48;93.82031;95999.95;;;;
2020/09/09 03:35:29;;;;;;;11.7;9.950002;;;;;;;9.48;93.82031;95999.95;;;;
2020/09/09 03:36:30;;;;;;;11.7;9.950002;;;;;;;9.48;93.82031;95999.95;;;;
2020/09/09 03:37:30;;;;;;;11.7;9.950002;;;;;;;9.48;93.82031;95999.95;;;;
2020/09/09 03:38:31;;;;;;;11.7;9.950002;;;;;;;9.48;93.82031;95999.95;;;;
2020/09/09 03:39:31;;;;;;;11.7;9.950002;;;;;;;9.48;93.82031;95999.95;;;;
2020/09/09 03:40:32;;;;;;;11.7;9.950002;;;;;;;9.48;93.82031;95999.95;;;;
2020/09/09 03:41:33;;;;;;;11.7;9.950002;;;;;;;9.48;93.82031;95999.95;;;;
2020/09/09 03:42:33;;;;;;;11.7;9.950002;;;;;;;9.48;93.82031;95999.95;;;;
2020/09/09 03:43:34;;;;;;;11.7;9.950002;;;;;;;9.48;93.82031;95999.95;;;;
2020/09/09 03:44:35;;;;;;;11.7;9.950002;;;;;;;9.48;93.82031;95999.95;;;;
2020/09/09 03:45:36;;;;;;;10.5;8.549999;;;;;;;9.37;94.10547;95997.94;;;;
2020/09/09 03:46:45;;;;;;;10.5;8.549999;;;;;;;9.37;94.10547;95997.94;;;;
2020/09/09 03:47:57;;;;;;;10.5;8.549999;;;;;;;9.37;94.10547;95997.94;;;;
2020/09/09 03:49:01;;;;;;;10.5;8.549999;;;;;;;9.37;94.10547;95997.94;;;;
2020/09/09 03:50:02;;;;;;;10.5;8.549999;;;;;;;9.37;94.10547;95997.94;;;;
2020/09/09 03:51:03;;;;;;;10.5;8.549999;;;;;;;9.37;94.10547;95997.94;;;;
2020/09/09 03:52:04;;;;;;;10.5;8.549999;;;;;;;9.37;94.10547;95997.94;;;;
2020/09/09 03:53:05;;;;;;;10.5;8.549999;;;;;;;9.37;94.10547;95997.94;;;;
2020/09/09 03:54:07;;;;;;;10.5;8.549999;;;;;;;9.37;94.10547;95997.94;;;;
2020/09/09 03:55:08;;;;;;;10.5;8.549999;;;;;;;9.37;94.10547;95997.94;;;;
2020/09/09 03:56:09;;;;;;;11;8.450001;;;;;;;9.33;94.40332;95989.03;;;;
2020/09/09 03:57:14;;;;;;;11;8.450001;;;;;;;9.33;94.40332;95989.03;;;;
2020/09/09 03:58:14;;;;;;;11;8.450001;;;;;;;9.33;94.40332;95989.03;;;;
2020/09/09 03:59:15;;;;;;;11;8.450001;;;;;;;9.33;94.40332;95989.03;;;;
2020/09/09 04:00:15;;;;;;;11;8.450001;;;;;;;9.33;94.40332;95989.03;;;;
2020/09/09 04:01:17;;;;;;;11;8.450001;;;;;;;9.33;94.40332;95989.03;;;;
2020/09/09 04:02:17;;;;;;;11;8.450001;;;;;;;9.33;94.40332;95989.03;;;;
2020/09/09 04:03:18;;;;;;;11;8.450001;;;;;;;9.33;94.40332;95989.03;;;;
2020/09/09 04:04:19;;;;;;;11;8.450001;;;;;;;9.33;94.40332;95989.03;;;;
2020/09/09 04:05:20;;;;;;;11;8.450001;;;;;;;9.33;94.40332;95989.03;;;;
2020/09/09 04:06:25;;;;;;;8.699999;7.8;;;;;;;9.22;94.61328;96002.22;;;;
2020/09/09 04:07:25;;;;;;;8.699999;7.8;;;;;;;9.22;94.61328;96002.22;;;;
2020/09/09 04:08:26;;;;;;;8.699999;7.8;;;;;;;9.22;94.61328;96002.22;;;;
2020/09/09 04:09:26;;;;;;;8.699999;7.8;;;;;;;9.22;94.61328;96002.22;;;;
2020/09/09 04:10:28;;;;;;;8.699999;7.8;;;;;;;9.22;94.61328;96002.22;;;;
2020/09/09 04:11:29;;;;;;;8.699999;7.8;;;;;;;9.22;94.61328;96002.22;;;;
2020/09/09 04:12:29;;;;;;;8.699999;7.8;;;;;;;9.22;94.61328;96002.22;;;;
2020/09/09 04:13:30;;;;;;;8.699999;7.8;;;;;;;9.22;94.61328;96002.22;;;;
2020/09/09 04:14:30;;;;;;;8.699999;7.8;;;;;;;9.22;94.61328;96002.22;;;;
2020/09/09 04:15:31;;;;;;;8.699999;7.8;;;;;;;9.22;94.61328;96002.22;;;;
2020/09/09 04:16:31;;;;;;;8.699999;7.8;;;;;;;9.22;94.61328;96002.22;;;;
2020/09/09 04:17:41;;;;;;;8.25;7.25;;;;;;;9.17;94.77148;95999.42;;;;
2020/09/09 04:18:48;;;;;;;8.25;7.25;;;;;;;9.17;94.77148;95999.42;;;;
2020/09/09 04:19:57;;;;;;;8.25;7.25;;;;;;;9.17;94.77148;95999.42;;;;
2020/09/09 04:20:58;;;;;;;8.25;7.25;;;;;;;9.17;94.77148;95999.42;;;;
2020/09/09 04:21:58;;;;;;;8.25;7.25;;;;;;;9.17;94.77148;95999.42;;;;
2020/09/09 04:23:07;;;;;;;8.25;7.25;;;;;;;9.17;94.77148;95999.42;;;;
2020/09/09 04:24:09;;;;;;;8.25;7.25;;;;;;;9.17;94.77148;95999.42;;;;
2020/09/09 04:25:17;;;;;;;8.25;7.25;;;;;;;9.17;94.77148;95999.42;;;;
2020/09/09 04:26:26;;;;;;;8.25;7.25;;;;;;;9.17;94.77148;95999.42;;;;
2020/09/09 04:27:27;;;;;;;9.3;7.299999;;;;;;;9.04;95.02051;96008.76;;;;
2020/09/09 04:28:28;;;;;;;9.3;7.299999;;;;;;;9.04;95.02051;96008.76;;;;
2020/09/09 04:29:28;;;;;;;9.3;7.299999;;;;;;;9.04;95.02051;96008.76;;;;
2020/09/09 04:30:29;;;;;;;9.3;7.299999;;;;;;;9.04;95.02051;96008.76;;;;
2020/09/09 04:31:29;;;;;;;9.3;7.299999;;;;;;;9.04;95.02051;96008.76;;;;
2020/09/09 04:32:31;;;;;;;9.3;7.299999;;;;;;;9.04;95.02051;96008.76;;;;
2020/09/09 04:33:31;;;;;;;9.3;7.299999;;;;;;;9.04;95.02051;96008.76;;;;
2020/09/09 04:34:32;;;;;;;9.3;7.299999;;;;;;;9.04;95.02051;96008.76;;;;
2020/09/09 04:35:32;;;;;;;9.3;7.299999;;;;;;;9.04;95.02051;96008.76;;;;
2020/09/09 04:36:33;;;;;;;9.3;7.299999;;;;;;;9.04;95.02051;96008.76;;;;
2020/09/09 04:37:37;;;;;;;9.3;7.299999;;;;;;;9.04;95.02051;96008.76;;;;
2020/09/09 04:38:38;;;;;;;11.6;7.8;;;;;;;8.99;95.14551;95998.3;;;;
2020/09/09 04:39:40;;;;;;;11.6;7.8;;;;;;;8.99;95.14551;95998.3;;;;
2020/09/09 04:40:44;;;;;;;11.6;7.8;;;;;;;8.99;95.14551;95998.3;;;;
2020/09/09 04:41:45;;;;;;;11.6;7.8;;;;;;;8.99;95.14551;95998.3;;;;
2020/09/09 04:42:48;;;;;;;11.6;7.8;;;;;;;8.99;95.14551;95998.3;;;;
2020/09/09 04:43:52;;;;;;;11.6;7.8;;;;;;;8.99;95.14551;95998.3;;;;
2020/09/09 04:44:54;;;;;;;11.6;7.8;;;;;;;8.99;95.14551;95998.3;;;;
2020/09/09 04:45:56;;;;;;;11.6;7.8;;;;;;;8.99;95.14551;95998.3;;;;
2020/09/09 04:46:57;;;;;;;11.6;7.8;;;;;;;8.99;95.14551;95998.3;;;;
2020/09/09 04:48:01;;;;;;;11.6;7.8;;;;;;;8.99;95.14551;95998.3;;;;
2020/09/09 04:49:01;;;;;;;10;8.5;;;;;;;8.9;95.2627;96008.04;;;;
2020/09/09 04:50:02;;;;;;;10;8.5;;;;;;;8.9;95.2627;96008.04;;;;
2020/09/09 04:51:15;;;;;;;10;8.5;;;;;;;8.9;95.2627;96008.04;;;;
2020/09/09 04:52:23;;;;;;;10;8.5;;;;;;;8.9;95.2627;96008.04;;;;
2020/09/09 04:53:23;;;;;;;10;8.5;;;;;;;8.9;95.2627;96008.04;;;;
2020/09/09 04:54:24;;;;;;;10;8.5;;;;;;;8.9;95.2627;96008.04;;;;
2020/09/09 04:55:25;;;;;;;10;8.5;;;;;;;8.9;95.2627;96008.04;;;;
2020/09/09 04:56:26;;;;;;;10;8.5;;;;;;;8.9;95.2627;96008.04;;;;
2020/09/09 04:57:27;;;;;;;10;8.5;;;;;;;8.9;95.2627;96008.04;;;;
2020/09/09 04:58:28;;;;;;;10;8.5;;;;;;;8.9;95.2627;96008.04;;;;
2020/09/09 04:59:29;;;;;;;12.65;9.300001;;;;;;;8.95;95.38281;96001.01;;;;
2020/09/09 05:00:29;;;;;;;12.65;9.300001;;;;;;;8.95;95.38281;96001.01;;;;
2020/09/09 05:01:30;;;;;;;12.65;9.300001;;;;;;;8.95;95.38281;96001.01;;;;
2020/09/09 05:02:30;;;;;;;12.65;9.300001;;;;;;;8.95;95.38281;96001.01;;;;
2020/09/09 05:03:31;;;;;;;12.65;9.300001;;;;;;;8.95;95.38281;96001.01;;;;
2020/09/09 05:04:31;;;;;;;12.65;9.300001;;;;;;;8.95;95.38281;96001.01;;;;
2020/09/09 05:05:33;;;;;;;12.65;9.300001;;;;;;;8.95;95.38281;96001.01;;;;
2020/09/09 05:06:43;;;;;;;12.65;9.300001;;;;;;;8.95;95.38281;96001.01;;;;
2020/09/09 05:07:44;;;;;;;12.65;9.300001;;;;;;;8.95;95.38281;96001.01;;;;
2020/09/09 05:08:44;;;;;;;12.65;9.300001;;;;;;;8.95;95.38281;96001.01;;;;
2020/09/09 05:09:47;;;;;;;12.65;9.300001;;;;;;;8.95;95.38281;96001.01;;;;
2020/09/09 05:10:52;;;;;;;12.45;10.3;;;;;;;9.02;95.51367;96002.34;;;;
2020/09/09 05:11:53;;;;;;;12.45;10.3;;;;;;;9.02;95.51367;96002.34;;;;
2020/09/09 05:12:53;;;;;;;12.45;10.3;;;;;;;9.02;95.51367;96002.34;;;;
2020/09/09 05:13:54;;;;;;;12.45;10.3;;;;;;;9.02;95.51367;96002.34;;;;
2020/09/09 05:14:56;;;;;;;12.45;10.3;;;;;;;9.02;95.51367;96002.34;;;;
2020/09/09 05:15:56;;;;;;;12.45;10.3;;;;;;;9.02;95.51367;96002.34;;;;
2020/09/09 05:16:58;;;;;;;12.45;10.3;;;;;;;9.02;95.51367;96002.34;;;;
2020/09/09 05:17:59;;;;;;;12.45;10.3;;;;;;;9.02;95.51367;96002.34;;;;
2020/09/09 05:19:07;;;;;;;12.45;10.3;;;;;;;9.02;95.51367;96002.34;;;;
2020/09/09 05:20:08;;;;;;;12.45;10.3;;;;;;;9.02;95.51367;96002.34;;;;
2020/09/09 05:21:09;;;;;;;10.55;9.3;;;;;;;9.26;95.5127;96006.67;;;;
2020/09/09 05:22:21;;;;;;;10.55;9.3;;;;;;;9.26;95.5127;96006.67;;;;
2020/09/09 05:23:25;;;;;;;10.55;9.3;;;;;;;9.26;95.5127;96006.67;;;;
2020/09/09 05:24:25;;;;;;;10.55;9.3;;;;;;;9.26;95.5127;96006.67;;;;
2020/09/09 05:25:26;;;;;;;10.55;9.3;;;;;;;9.26;95.5127;96006.67;;;;
2020/09/09 05:26:26;;;;;;;10.55;9.3;;;;;;;9.26;95.5127;96006.67;;;;
2020/09/09 05:27:43;;;;;;;10.55;9.3;;;;;;;9.26;95.5127;96006.67;;;;
2020/09/09 05:28:48;;;;;;;10.55;9.3;;;;;;;9.26;95.5127;96006.67;;;;
2020/09/09 05:29:49;;;;;;;10.55;9.3;;;;;;;9.26;95.5127;96006.67;;;;
2020/09/09 05:30:50;;;;;;;10.55;9.3;;;;;;;9.26;95.5127;96006.67;;;;
2020/09/09 05:31:54;;;;;;;9.800001;8.85;;;;;;;9.47;95.42188;96009.94;;;;
2020/09/09 05:32:54;;;;;;;9.800001;8.85;;;;;;;9.47;95.42188;96009.94;;;;
2020/09/09 05:34:01;;;;;;;9.800001;8.85;;;;;;;9.47;95.42188;96009.94;;;;
2020/09/09 05:35:02;;;;;;;9.800001;8.85;;;;;;;9.47;95.42188;96009.94;;;;
2020/09/09 05:36:05;;;;;;;9.800001;8.85;;;;;;;9.47;95.42188;96009.94;;;;
2020/09/09 05:37:06;;;;;;;9.800001;8.85;;;;;;;9.47;95.42188;96009.94;;;;
2020/09/09 05:38:07;;;;;;;9.800001;8.85;;;;;;;9.47;95.42188;96009.94;;;;
2020/09/09 05:39:08;;;;;;;9.800001;8.85;;;;;;;9.47;95.42188;96009.94;;;;
2020/09/09 05:40:08;;;;;;;9.800001;8.85;;;;;;;9.47;95.42188;96009.94;;;;
2020/09/09 05:41:12;;;;;;;9.800001;8.85;;;;;;;9.47;95.42188;96009.94;;;;
2020/09/09 05:42:12;;;;;;;8.85;8;;;;;;;9.75;95.62207;96010.05;;;;
2020/09/09 05:43:13;;;;;;;8.85;8;;;;;;;9.75;95.62207;96010.05;;;;
2020/09/09 05:44:13;;;;;;;8.85;8;;;;;;;9.75;95.62207;96010.05;;;;
2020/09/09 05:45:18;;;;;;;8.85;8;;;;;;;9.75;95.62207;96010.05;;;;